createdAt,value
2019-01-24T00:00:24.052Z,100.87
2019-01-24T00:02:51.722Z,95.40
2019-01-24T00:05:19.362Z,98.93
2019-01-24T00:07:47.009Z,87.27
2019-01-24T00:10:15.595Z,96.10
2019-01-24T00:12:43.236Z,94.83
2019-01-24T00:15:11.008Z,101.20
2019-01-24T00:17:38.730Z,94.53
2019-01-24T00:20:06.863Z,93.37
2019-01-24T00:22:34.601Z,100.30
2019-01-24T00:25:02.349Z,100.37
2019-01-24T00:27:30.131Z,98.53
2019-01-24T00:29:57.901Z,102.73
2019-01-24T00:32:25.746Z,98.97
2019-01-24T00:34:53.470Z,96.80
2019-01-24T00:37:22.631Z,100.43
2019-01-24T00:39:50.347Z,106.80
2019-01-24T00:42:17.966Z,108.40
2019-01-24T00:44:45.675Z,103.93
2019-01-24T00:47:13.391Z,105.47
2019-01-24T00:49:43.761Z,97.53
2019-01-24T00:52:11.322Z,99.53
2019-01-24T00:54:38.989Z,103.60
2019-01-24T00:57:06.606Z,99.60
2019-01-24T00:59:34.206Z,97.00
2019-01-24T01:02:01.863Z,104.50
2019-01-24T01:04:29.934Z,95.70
2019-01-24T01:06:57.720Z,96.20
2019-01-24T01:09:25.348Z,94.67
2019-01-24T01:11:52.978Z,97.00
2019-01-24T01:14:20.596Z,97.03
2019-01-24T01:16:48.243Z,93.10
2019-01-24T01:19:15.883Z,93.80
2019-01-24T01:21:43.466Z,105.33
2019-01-24T01:24:11.161Z,93.73
2019-01-24T01:26:38.794Z,99.27
2019-01-24T01:29:06.423Z,101.00
2019-01-24T01:31:34.067Z,92.67
2019-01-24T01:34:03.352Z,98.97
2019-01-24T01:36:31.006Z,96.47
2019-01-24T01:38:58.716Z,104.80
2019-01-24T01:41:28.127Z,97.93
2019-01-24T01:43:55.861Z,103.47
2019-01-24T01:46:23.599Z,102.90
2019-01-24T01:48:52.338Z,97.53
2019-01-24T01:51:20.021Z,97.83
2019-01-24T01:53:47.740Z,105.57
2019-01-24T01:56:15.373Z,107.77
2019-01-24T01:58:43.003Z,107.03
2019-01-24T02:01:10.619Z,99.53
2019-01-24T02:03:39.474Z,101.30
2019-01-24T02:06:07.218Z,98.47
2019-01-24T02:08:34.992Z,104.47
2019-01-24T02:11:02.757Z,103.80
2019-01-24T02:13:30.703Z,102.13
2019-01-24T02:15:58.460Z,106.57
2019-01-24T02:18:26.317Z,101.87
2019-01-24T02:20:54.142Z,97.57
2019-01-24T02:23:21.777Z,101.07
2019-01-24T02:25:49.441Z,104.53
2019-01-24T02:28:17.179Z,98.00
2019-01-24T02:30:44.916Z,105.43
2019-01-24T02:33:12.741Z,98.70
2019-01-24T02:35:40.500Z,96.03
2019-01-24T02:38:08.245Z,91.80
2019-01-24T02:40:35.876Z,99.97
2019-01-24T02:43:03.639Z,97.40
2019-01-24T02:45:31.351Z,99.80
2019-01-24T02:47:59.111Z,102.43
2019-01-24T02:50:26.751Z,96.03
2019-01-24T02:52:54.509Z,101.30
2019-01-24T02:55:22.344Z,102.73
2019-01-24T02:57:50.023Z,98.03
2019-01-24T03:00:21.495Z,95.93
2019-01-24T03:02:50.648Z,99.37
2019-01-24T03:05:20.757Z,105.50
2019-01-24T03:07:49.839Z,99.53
2019-01-24T03:10:17.598Z,104.23
2019-01-24T03:12:45.432Z,100.50
2019-01-24T03:15:15.275Z,94.03
2019-01-24T03:17:45.867Z,103.27
2019-01-24T03:20:14.052Z,94.27
2019-01-24T03:22:41.774Z,99.13
2019-01-24T03:25:09.678Z,99.93
2019-01-24T03:27:37.418Z,99.90
2019-01-24T03:30:07.837Z,93.73
2019-01-24T03:32:35.573Z,104.70
2019-01-24T03:35:04.751Z,100.13
2019-01-24T03:37:32.487Z,99.23
2019-01-24T03:40:00.407Z,96.37
2019-01-24T03:42:28.113Z,96.90
2019-01-24T03:44:55.741Z,91.30
2019-01-24T03:47:23.416Z,95.77
2019-01-24T03:49:51.017Z,97.07
2019-01-24T03:52:18.703Z,95.00
2019-01-24T03:54:46.259Z,104.70
2019-01-24T03:57:13.980Z,98.43
2019-01-24T03:59:41.551Z,97.50
2019-01-24T04:02:09.213Z,98.53
2019-01-24T04:04:36.818Z,102.97
2019-01-24T04:07:04.699Z,99.63
2019-01-24T04:09:32.215Z,98.23
2019-01-24T04:11:59.885Z,95.80
2019-01-24T04:14:27.436Z,97.53
2019-01-24T04:16:55.048Z,101.20
2019-01-24T04:19:22.640Z,97.73
2019-01-24T04:21:50.288Z,92.23
2019-01-24T04:24:17.952Z,89.97
2019-01-24T04:26:45.498Z,84.73
2019-01-24T04:29:13.256Z,92.53
2019-01-24T04:31:40.842Z,85.93
2019-01-24T04:34:08.469Z,79.57
2019-01-24T04:36:36.098Z,72.80
2019-01-24T04:39:06.221Z,69.23
2019-01-24T04:41:33.804Z,65.77
2019-01-24T04:44:01.479Z,74.57
2019-01-24T04:46:29.073Z,70.43
2019-01-24T04:48:56.750Z,68.57
2019-01-24T04:51:24.359Z,68.73
2019-01-24T04:53:52.094Z,68.27
2019-01-24T04:56:19.682Z,69.03
2019-01-24T04:58:47.367Z,62.53
2019-01-24T05:01:14.996Z,64.73
2019-01-24T05:03:42.678Z,63.13
2019-01-24T05:06:10.302Z,58.73
2019-01-24T05:08:37.934Z,57.10
2019-01-24T05:11:05.509Z,56.87
2019-01-24T05:13:33.217Z,62.40
2019-01-24T05:16:00.797Z,56.90
2019-01-24T05:18:28.474Z,64.70
2019-01-24T05:20:56.035Z,64.43
2019-01-24T05:23:23.798Z,59.70
2019-01-24T05:25:51.392Z,60.10
2019-01-24T05:28:19.099Z,53.90
2019-01-24T05:30:46.685Z,54.20
2019-01-24T05:33:14.833Z,54.53
2019-01-24T05:35:42.442Z,51.37
2019-01-24T05:38:10.187Z,58.27
2019-01-24T05:40:37.790Z,53.90
2019-01-24T05:43:05.485Z,50.63
2019-01-24T05:45:33.051Z,52.77
2019-01-24T05:48:00.644Z,46.20
2019-01-24T05:50:28.230Z,50.23
2019-01-24T05:52:55.926Z,52.00
2019-01-24T05:55:23.667Z,48.37
2019-01-24T05:57:51.401Z,49.50
2019-01-24T06:00:45.343Z,49.40
2019-01-24T06:03:12.912Z,49.63
2019-01-24T06:05:41.846Z,56.00
2019-01-24T06:08:09.666Z,51.10
2019-01-24T06:10:37.406Z,45.87
2019-01-24T06:13:05.032Z,50.53
2019-01-24T06:15:32.763Z,52.47
2019-01-24T06:18:00.500Z,49.27
2019-01-24T06:20:28.167Z,52.97
2019-01-24T06:23:07.876Z,54.10
2019-01-24T06:25:35.579Z,53.90
2019-01-24T06:28:03.676Z,52.13
2019-01-24T06:30:31.485Z,51.27
2019-01-24T06:32:59.355Z,55.27
2019-01-24T06:35:27.160Z,58.27
2019-01-24T06:37:54.851Z,56.37
2019-01-24T06:40:22.650Z,53.80
2019-01-24T06:42:50.404Z,52.10
2019-01-24T06:45:19.924Z,51.20
2019-01-24T06:47:47.769Z,52.80
2019-01-24T06:50:16.059Z,65.17
2019-01-24T06:52:43.772Z,70.27
2019-01-24T06:55:13.892Z,73.57
2019-01-24T06:57:41.729Z,79.83
2019-01-24T07:00:12.439Z,84.57
2019-01-24T07:02:40.129Z,90.30
2019-01-24T07:05:07.819Z,80.73
2019-01-24T07:07:35.598Z,87.13
2019-01-24T07:10:03.977Z,86.97
2019-01-24T07:12:31.700Z,86.07
2019-01-24T07:14:59.303Z,93.87
2019-01-24T07:17:27.056Z,91.30
2019-01-24T07:19:54.653Z,86.00
2019-01-24T07:22:22.274Z,89.00
2019-01-24T07:24:49.907Z,89.30
2019-01-24T07:27:17.603Z,87.03
2019-01-24T07:29:45.226Z,87.00
2019-01-24T07:32:12.929Z,86.77
2019-01-24T07:34:40.531Z,88.27
2019-01-24T07:37:08.192Z,88.57
2019-01-24T07:39:35.823Z,84.00
2019-01-24T07:42:03.616Z,92.63
2019-01-24T07:44:31.298Z,78.97
2019-01-24T07:46:58.900Z,82.27
2019-01-24T07:49:29.447Z,71.70
2019-01-24T07:51:57.127Z,64.33
2019-01-24T07:54:24.729Z,57.33
2019-01-24T07:56:52.498Z,53.47
2019-01-24T07:59:20.136Z,53.60
2019-01-24T08:01:47.744Z,51.83
2019-01-24T08:04:15.362Z,51.87
2019-01-24T08:06:42.996Z,62.97
2019-01-24T08:09:10.627Z,64.53
2019-01-24T08:11:38.372Z,66.50
2019-01-24T08:14:06.013Z,60.33
2019-01-24T08:16:33.642Z,56.47
2019-01-24T08:19:01.234Z,63.57
2019-01-24T08:21:28.832Z,61.70
2019-01-24T08:23:56.428Z,64.13
2019-01-24T08:26:24.038Z,68.43
2019-01-24T08:28:51.632Z,64.60
2019-01-24T08:31:19.254Z,63.87
2019-01-24T08:33:47.883Z,61.20
2019-01-24T08:36:15.813Z,57.57
2019-01-24T08:38:43.560Z,61.40
2019-01-24T08:41:11.276Z,62.40
2019-01-24T08:43:39.077Z,62.67
2019-01-24T08:46:06.901Z,63.03
2019-01-24T08:48:39.033Z,65.37
2019-01-24T08:51:08.380Z,60.93
2019-01-24T08:53:36.232Z,60.33
2019-01-24T08:56:04.417Z,59.27
2019-01-24T08:58:32.193Z,64.70
2019-01-24T09:00:59.991Z,57.20
2019-01-24T09:03:27.748Z,58.60
2019-01-24T09:05:55.487Z,59.47
2019-01-24T09:08:23.177Z,61.93
2019-01-24T09:10:50.897Z,57.80
2019-01-24T09:13:18.540Z,64.50
2019-01-24T09:15:46.477Z,63.33
2019-01-24T09:18:14.396Z,60.07
2019-01-24T09:20:41.953Z,61.00
2019-01-24T09:23:09.628Z,60.50
2019-01-24T09:25:37.285Z,61.33
2019-01-24T09:28:05.201Z,62.83
2019-01-24T09:30:32.876Z,61.23
2019-01-24T09:33:00.760Z,60.97
2019-01-24T09:35:28.488Z,64.10
2019-01-24T09:37:56.290Z,65.17
2019-01-24T09:40:24.061Z,64.80
2019-01-24T09:42:51.810Z,62.43
2019-01-24T09:45:21.756Z,58.77
2019-01-24T09:47:49.586Z,60.33
2019-01-24T09:50:19.173Z,57.50
2019-01-24T09:52:46.997Z,57.70
2019-01-24T09:55:14.575Z,57.03
2019-01-24T09:57:42.248Z,55.30
2019-01-24T10:00:31.209Z,53.90
2019-01-24T10:02:59.016Z,56.03
2019-01-24T10:05:26.735Z,56.97
2019-01-24T10:07:54.664Z,57.33
2019-01-24T10:10:25.703Z,57.00
2019-01-24T10:12:54.353Z,52.13
2019-01-24T10:15:22.072Z,54.67
2019-01-24T10:17:49.743Z,55.73
2019-01-24T10:20:18.734Z,56.53
2019-01-24T10:22:46.524Z,58.00
2019-01-24T10:25:16.939Z,57.73
2019-01-24T10:27:44.646Z,56.77
2019-01-24T10:30:13.903Z,58.47
2019-01-24T10:32:41.647Z,55.13
2019-01-24T10:35:09.279Z,54.40
2019-01-24T10:37:36.938Z,56.43
2019-01-24T10:40:06.825Z,53.53
2019-01-24T10:42:34.572Z,61.60
2019-01-24T10:45:02.313Z,57.93
2019-01-24T10:47:30.099Z,53.03
2019-01-24T10:49:57.880Z,47.87
2019-01-24T10:52:25.693Z,48.63
2019-01-24T10:54:53.414Z,60.60
2019-01-24T10:57:21.232Z,53.87
2019-01-24T10:59:49.026Z,49.27
2019-01-24T11:02:16.762Z,46.93
2019-01-24T11:04:44.595Z,44.77
2019-01-24T11:07:12.331Z,47.33
2019-01-24T11:09:40.081Z,47.97
2019-01-24T11:12:07.748Z,52.20
2019-01-24T11:14:35.577Z,52.97
2019-01-24T11:17:03.320Z,52.70
2019-01-24T11:19:31.161Z,54.77
2019-01-24T11:21:58.863Z,54.80
2019-01-24T11:24:26.580Z,59.50
2019-01-24T11:26:54.355Z,56.23
2019-01-24T11:29:22.100Z,56.53
2019-01-24T11:31:50.898Z,58.57
2019-01-24T11:34:18.595Z,59.60
2019-01-24T11:36:49.148Z,56.80
2019-01-24T11:39:16.928Z,51.43
2019-01-24T11:41:44.586Z,52.43
2019-01-24T11:44:12.300Z,53.70
2019-01-24T11:46:40.009Z,52.70
2019-01-24T11:49:07.729Z,70.67
2019-01-24T11:51:35.388Z,66.60
2019-01-24T11:54:03.126Z,51.37
2019-01-24T11:56:30.871Z,52.57
2019-01-24T11:58:58.608Z,56.77
2019-01-24T12:01:26.611Z,54.97
2019-01-24T12:03:56.093Z,46.70
2019-01-24T12:06:24.294Z,48.83
2019-01-24T12:08:52.611Z,47.23
2019-01-24T12:11:23.588Z,50.57
2019-01-24T12:13:51.932Z,47.07
2019-01-24T12:16:20.481Z,49.67
2019-01-24T12:18:49.227Z,50.27
2019-01-24T12:21:17.460Z,52.37
2019-01-24T12:23:45.360Z,45.87
2019-01-24T12:26:13.287Z,52.80
2019-01-24T12:28:41.003Z,55.00
2019-01-24T12:31:08.632Z,51.17
2019-01-24T12:33:39.271Z,49.67
2019-01-24T12:36:06.830Z,50.00
2019-01-24T12:38:34.484Z,52.50
2019-01-24T12:41:02.096Z,53.40
2019-01-24T12:43:29.886Z,54.33
2019-01-24T12:45:58.592Z,48.60
2019-01-24T12:48:26.264Z,50.30
2019-01-24T12:50:53.954Z,50.33
2019-01-24T12:53:21.690Z,52.40
2019-01-24T12:55:49.343Z,53.27
2019-01-24T12:58:17.068Z,49.37
2019-01-24T13:00:44.724Z,48.40
2019-01-24T13:03:12.511Z,50.73
2019-01-24T13:05:40.165Z,51.00
2019-01-24T13:08:08.080Z,55.37
2019-01-24T13:10:35.935Z,50.70
2019-01-24T13:13:04.112Z,48.73
2019-01-24T13:15:32.467Z,50.00
2019-01-24T13:18:00.445Z,52.50
2019-01-24T13:20:28.454Z,55.57
2019-01-24T13:22:56.147Z,54.07
2019-01-24T13:25:26.202Z,55.50
2019-01-24T13:27:53.970Z,52.87
2019-01-24T13:30:23.418Z,49.53
2019-01-24T13:32:52.219Z,48.90
2019-01-24T13:35:19.896Z,48.57
2019-01-24T13:37:47.504Z,54.37
2019-01-24T13:40:17.628Z,50.17
2019-01-24T13:42:45.378Z,53.80
2019-01-24T13:45:16.078Z,53.07
2019-01-24T13:47:43.784Z,49.13
2019-01-24T13:50:13.351Z,45.53
2019-01-24T13:52:41.025Z,47.53
2019-01-24T13:55:08.796Z,45.57
2019-01-24T13:57:36.425Z,49.50
2019-01-24T14:00:08.890Z,50.57
2019-01-24T14:02:37.030Z,49.67
2019-01-24T14:05:06.467Z,42.50
2019-01-24T14:07:34.141Z,47.90
2019-01-24T14:10:01.951Z,45.10
2019-01-24T14:12:29.686Z,48.70
2019-01-24T14:14:57.375Z,45.53
2019-01-24T14:17:24.961Z,49.60
2019-01-24T14:19:52.814Z,44.73
2019-01-24T14:22:20.406Z,43.90
2019-01-24T14:24:48.092Z,41.30
2019-01-24T14:27:15.663Z,43.63
2019-01-24T14:29:43.424Z,45.43
2019-01-24T14:32:11.586Z,43.43
2019-01-24T14:34:39.616Z,44.97
2019-01-24T14:37:08.249Z,42.90
2019-01-24T14:39:35.946Z,43.33
2019-01-24T14:42:03.650Z,41.23
2019-01-24T14:44:31.331Z,52.73
2019-01-24T14:46:58.943Z,46.77
2019-01-24T14:49:26.619Z,44.30
2019-01-24T14:51:54.169Z,45.53
2019-01-24T14:54:21.888Z,44.10
2019-01-24T14:56:49.459Z,46.20
2019-01-24T14:59:17.177Z,44.77
2019-01-24T15:01:44.873Z,44.63
2019-01-24T15:04:12.565Z,51.13
2019-01-24T15:06:40.184Z,46.77
2019-01-24T15:09:08.306Z,47.00
2019-01-24T15:11:35.894Z,49.10
2019-01-24T15:14:04.138Z,46.60
2019-01-24T15:16:31.743Z,49.23
2019-01-24T15:18:59.531Z,46.80
2019-01-24T15:21:27.144Z,50.20
2019-01-24T15:23:54.763Z,49.63
2019-01-24T15:26:23.382Z,44.37
2019-01-24T15:28:51.085Z,46.80
2019-01-24T15:31:18.673Z,50.57
2019-01-24T15:33:46.353Z,44.93
2019-01-24T15:36:13.921Z,47.10
2019-01-24T15:38:41.593Z,43.40
2019-01-24T15:41:09.187Z,48.53
2019-01-24T15:43:37.122Z,47.03
2019-01-24T15:46:04.845Z,42.87
2019-01-24T15:48:32.640Z,45.83
2019-01-24T15:51:00.244Z,42.23
2019-01-24T15:53:27.928Z,46.67
2019-01-24T15:55:55.571Z,50.63
2019-01-24T15:58:23.293Z,45.37
2019-01-24T16:00:50.927Z,53.70
2019-01-24T16:03:18.613Z,56.90
2019-01-24T16:05:46.256Z,50.70
2019-01-24T16:08:13.883Z,55.87
2019-01-24T16:10:41.534Z,54.47
2019-01-24T16:13:09.195Z,51.77
2019-01-24T16:15:37.115Z,54.50
2019-01-24T16:18:07.244Z,56.00
2019-01-24T16:20:34.965Z,56.90
2019-01-24T16:23:02.611Z,56.07
2019-01-24T16:25:31.418Z,57.87
2019-01-24T16:27:59.112Z,59.97
2019-01-24T16:30:30.857Z,64.90
2019-01-24T16:32:58.629Z,56.10
2019-01-24T16:35:26.445Z,55.93
2019-01-24T16:37:55.827Z,57.87
2019-01-24T16:40:24.532Z,53.10
2019-01-24T16:42:52.247Z,62.97
2019-01-24T16:45:21.705Z,57.10
2019-01-24T16:47:49.497Z,62.60
2019-01-24T16:50:18.213Z,61.20
2019-01-24T16:52:45.963Z,65.40
2019-01-24T16:55:14.061Z,59.47
2019-01-24T16:57:41.790Z,57.37
2019-01-24T17:00:36.423Z,57.47
2019-01-24T17:03:04.308Z,57.73
2019-01-24T17:05:31.961Z,59.30
2019-01-24T17:07:59.562Z,56.63
2019-01-24T17:10:27.237Z,55.87
2019-01-24T17:12:56.004Z,56.53
2019-01-24T17:15:23.875Z,54.43
2019-01-24T17:17:51.499Z,50.40
2019-01-24T17:20:21.132Z,54.83
2019-01-24T17:22:48.919Z,54.53
2019-01-24T17:25:17.671Z,54.90
2019-01-24T17:27:46.348Z,56.23
2019-01-24T17:30:17.568Z,57.33
2019-01-24T17:32:46.947Z,62.70
2019-01-24T17:35:14.881Z,56.97
2019-01-24T17:37:42.553Z,53.23
2019-01-24T17:40:19.307Z,55.33
2019-01-24T17:42:46.941Z,51.73
2019-01-24T17:45:15.058Z,58.23
2019-01-24T17:47:42.787Z,53.07
2019-01-24T17:50:11.285Z,52.37
2019-01-24T17:52:38.973Z,58.57
2019-01-24T17:55:12.735Z,55.73
2019-01-24T17:57:40.617Z,51.10
2019-01-24T18:00:12.556Z,54.23
2019-01-24T18:02:40.297Z,55.73
2019-01-24T18:05:08.679Z,56.13
2019-01-24T18:07:36.275Z,58.30
2019-01-24T18:10:13.873Z,55.43
2019-01-24T18:12:37.310Z,55.10
2019-01-24T18:15:07.493Z,56.50
2019-01-24T18:17:35.213Z,53.23
2019-01-24T18:20:03.499Z,53.03
2019-01-24T18:22:31.142Z,54.97
2019-01-24T18:24:58.801Z,60.20
2019-01-24T18:27:26.567Z,53.93
2019-01-24T18:29:54.373Z,51.43
2019-01-24T18:32:22.161Z,48.97
2019-01-24T18:34:49.870Z,47.30
2019-01-24T18:37:17.562Z,50.93
2019-01-24T18:39:45.273Z,44.03
2019-01-24T18:42:13.084Z,49.40
2019-01-24T18:44:40.759Z,46.87
2019-01-24T18:47:08.432Z,43.40
2019-01-24T18:49:36.220Z,44.97
2019-01-24T18:52:04.869Z,38.37
2019-01-24T18:54:32.671Z,35.30
2019-01-24T18:57:00.380Z,27.47
2019-01-24T18:59:28.139Z,32.00
2019-01-24T19:01:55.875Z,30.37
2019-01-24T19:04:23.559Z,28.00
2019-01-24T19:06:51.326Z,27.97
2019-01-24T19:09:19.090Z,25.27
2019-01-24T19:11:46.918Z,26.47
2019-01-24T19:14:14.652Z,23.97
2019-01-24T19:16:42.384Z,23.63
2019-01-24T19:19:10.040Z,22.23
2019-01-24T19:21:37.781Z,18.60
2019-01-24T19:24:05.469Z,23.40
2019-01-24T19:26:33.249Z,19.97
2019-01-24T19:29:00.955Z,18.47
2019-01-24T19:31:29.773Z,19.70
2019-01-24T19:33:57.519Z,19.87
2019-01-24T19:36:25.249Z,19.83
2019-01-24T19:38:53.402Z,18.60
2019-01-24T19:41:21.406Z,17.70
2019-01-24T19:43:49.182Z,18.70
2019-01-24T19:46:17.072Z,17.63
2019-01-24T19:48:44.772Z,18.03
2019-01-24T19:51:12.672Z,17.47
2019-01-24T19:53:40.522Z,18.03
2019-01-24T19:56:08.505Z,16.83
2019-01-24T19:58:36.261Z,18.17
2019-01-24T20:01:04.496Z,19.30
2019-01-24T20:03:33.924Z,18.00
2019-01-24T20:06:03.469Z,18.90
2019-01-24T20:08:31.230Z,18.97
2019-01-24T20:10:58.999Z,17.53
2019-01-24T20:13:26.818Z,21.87
2019-01-24T20:15:54.489Z,23.00
2019-01-24T20:18:22.165Z,26.90
2019-01-24T20:20:50.825Z,27.23
2019-01-24T20:23:18.521Z,21.40
2019-01-24T20:25:46.310Z,20.17
2019-01-24T20:28:14.002Z,20.40
2019-01-24T20:30:41.814Z,23.40
2019-01-24T20:33:09.567Z,19.70
2019-01-24T20:35:46.032Z,18.67
2019-01-24T20:38:19.921Z,18.63
2019-01-24T20:40:47.634Z,19.17
2019-01-24T20:43:18.171Z,19.90
2019-01-24T20:45:48.565Z,18.43
2019-01-24T20:48:16.197Z,19.50
2019-01-24T20:50:44.021Z,19.70
2019-01-24T20:53:13.443Z,17.77
2019-01-24T20:55:41.221Z,17.97
2019-01-24T20:58:08.951Z,20.70
2019-01-24T21:00:37.712Z,20.37
2019-01-24T21:03:05.859Z,25.53
2019-01-24T21:05:33.498Z,21.67
2019-01-24T21:08:03.934Z,20.50
2019-01-24T21:10:31.586Z,19.43
2019-01-24T21:12:59.229Z,18.33
2019-01-24T21:15:26.883Z,18.90
2019-01-24T21:17:54.552Z,20.50
2019-01-24T21:20:23.889Z,19.93
2019-01-24T21:22:51.485Z,21.10
2019-01-24T21:25:20.438Z,20.47
2019-01-24T21:27:48.126Z,25.37
2019-01-24T21:30:30.257Z,27.03
2019-01-24T21:32:57.844Z,36.10
2019-01-24T21:35:25.615Z,20.30
2019-01-24T21:37:53.265Z,19.40
2019-01-24T21:40:21.212Z,18.77
2019-01-24T21:42:48.778Z,18.63
2019-01-24T21:45:18.653Z,17.93
2019-01-24T21:47:46.232Z,18.07
2019-01-24T21:50:16.245Z,20.13
2019-01-24T21:52:44.009Z,19.50
2019-01-24T21:55:12.159Z,19.13
2019-01-24T21:57:39.794Z,19.33
2019-01-24T22:00:09.603Z,18.57
2019-01-24T22:02:37.183Z,18.80
2019-01-24T22:05:05.547Z,17.63
2019-01-24T22:07:33.236Z,17.87
2019-01-24T22:10:00.987Z,18.70
2019-01-24T22:12:29.848Z,17.60
2019-01-24T22:14:57.492Z,18.73
2019-01-24T22:17:25.089Z,17.70
2019-01-24T22:19:52.751Z,18.60
2019-01-24T22:22:20.540Z,18.33
2019-01-24T22:24:48.179Z,21.13
2019-01-24T22:27:15.829Z,18.67
2019-01-24T22:29:43.474Z,21.27
2019-01-24T22:32:11.083Z,19.57
2019-01-24T22:34:38.694Z,21.97
2019-01-24T22:37:06.418Z,20.47
2019-01-24T22:39:36.723Z,19.17
2019-01-24T22:42:04.327Z,22.77
2019-01-24T22:44:32.015Z,24.13
2019-01-24T22:47:01.648Z,19.57
2019-01-24T22:49:29.035Z,20.57
2019-01-24T22:51:56.680Z,19.63
2019-01-24T22:54:24.364Z,20.40
2019-01-24T22:56:52.069Z,21.63
2019-01-24T22:59:19.750Z,23.07
2019-01-24T23:02:11.241Z,26.90
2019-01-24T23:04:38.842Z,28.23
2019-01-24T23:07:06.528Z,20.73
2019-01-24T23:09:34.135Z,25.60
2019-01-24T23:12:01.812Z,29.00
2019-01-24T23:14:29.442Z,21.07
2019-01-24T23:16:57.153Z,25.63
2019-01-24T23:19:24.813Z,21.90
2019-01-24T23:21:52.562Z,20.23
2019-01-24T23:24:20.159Z,20.00
2019-01-24T23:26:47.803Z,21.20
2019-01-24T23:29:15.404Z,19.30
2019-01-24T23:31:43.118Z,19.23
2019-01-24T23:34:10.870Z,20.10
2019-01-24T23:36:38.575Z,18.63
2019-01-24T23:39:08.832Z,20.03
2019-01-24T23:41:36.608Z,19.00
2019-01-24T23:44:04.393Z,29.53
2019-01-24T23:46:32.149Z,32.80
2019-01-24T23:48:59.813Z,38.10
2019-01-24T23:51:27.408Z,38.87
2019-01-24T23:53:55.256Z,39.47
2019-01-24T23:56:22.925Z,36.30
2019-01-24T23:58:50.559Z,44.53
